Time;durP1;ratioP1;P1;durP2;ratioP2;P2;SDS_P1;SDS_P2;PMS_P1;PMS_P2;Temp;Humidity;BMP_temperature;BMP_pressure;BME280_temperature;BME280_humidity;BME280_pressure;Samples;Min_cycle;Max_cycle;Signal;HPM_P1;HPM_P2
2022/01/17 00:02:24;;;;;;;48.97;22.37;;;5.50;99.90;;;;;;5014912;28;20415;-83
2022/01/17 00:04:50;;;;;;;50.93;22.23;;;5.30;99.90;;;;;;5015029;28;20258;-83
2022/01/17 00:07:16;;;;;;;41.47;21.73;;;5.30;99.90;;;;;;5013267;28;20459;-83
2022/01/17 00:09:42;;;;;;;45.10;21.77;;;5.30;99.90;;;;;;5014590;28;20242;-84
2022/01/17 00:12:08;;;;;;;43.60;20.60;;;5.30;99.90;;;;;;5014925;28;20422;-83
2022/01/17 00:14:39;;;;;;;38.80;18.23;;;5.20;99.90;;;;;;4996745;28;20461;-83
2022/01/17 00:17:57;;;;;;;37.73;19.63;;;5.30;99.90;;;;;;5014168;28;20430;-84
2022/01/17 00:19:56;;;;;;;36.93;18.70;;;5.30;99.90;;;;;;4999821;28;20447;-83
2022/01/17 00:22:22;;;;;;;36.73;17.60;;;5.20;99.90;;;;;;5014578;28;20414;-83
2022/01/17 00:24:50;;;;;;;33.57;19.10;;;5.20;99.90;;;;;;5014173;28;20424;-84
2022/01/17 00:27:16;;;;;;;42.80;18.10;;;5.30;99.90;;;;;;5014057;28;20791;-83
2022/01/17 00:29:42;;;;;;;38.43;20.20;;;5.30;99.90;;;;;;5014104;28;20469;-83
2022/01/17 00:32:08;;;;;;;46.93;18.87;;;5.40;99.90;;;;;;4996297;28;20419;-83
2022/01/17 00:34:33;;;;;;;39.53;18.23;;;5.40;99.90;;;;;;4996317;28;20183;-83
2022/01/17 00:36:59;;;;;;;32.10;17.33;;;5.40;99.90;;;;;;4996090;28;20651;-84
2022/01/17 00:42:00;;;;;;;30.43;17.20;;;5.30;99.90;;;;;;4994690;22;20242;-80
2022/01/17 00:44:26;;;;;;;36.23;16.80;;;5.20;99.90;;;;;;5068552;28;20771;-79
2022/01/17 00:46:52;;;;;;;36.77;16.13;;;5.20;99.90;;;;;;5058167;28;20210;-79
2022/01/17 00:49:19;;;;;;;28.23;16.23;;;5.20;99.90;;;;;;5059636;28;20223;-79
2022/01/17 00:51:46;;;;;;;47.23;19.00;;;5.20;99.90;;;;;;5062673;28;20441;-79
2022/01/17 00:54:12;;;;;;;32.00;17.20;;;5.30;99.90;;;;;;5054008;28;20784;-79
2022/01/17 00:56:37;;;;;;;37.33;17.30;;;5.30;99.90;;;;;;5061115;28;20479;-80
2022/01/17 00:59:03;;;;;;;45.67;19.17;;;5.20;99.90;;;;;;5054140;28;20429;-79
2022/01/17 01:01:29;;;;;;;37.87;18.30;;;5.30;99.90;;;;;;5059726;28;20243;-79
2022/01/17 01:03:55;;;;;;;39.00;18.73;;;5.30;99.90;;;;;;5058829;28;20198;-79
2022/01/17 01:06:21;;;;;;;40.43;19.10;;;5.30;99.90;;;;;;5058984;28;20415;-79
2022/01/17 01:08:47;;;;;;;42.27;19.67;;;5.30;99.90;;;;;;5059821;28;20182;-79
2022/01/17 01:11:13;;;;;;;39.13;20.40;;;5.30;99.90;;;;;;5060352;28;20220;-80
2022/01/17 01:13:39;;;;;;;38.03;17.10;;;5.30;99.90;;;;;;5060045;28;20832;-79
2022/01/17 01:16:24;;;;;;;36.90;18.30;;;5.20;99.90;;;;;;5059786;28;20556;-80
2022/01/17 01:30:10;;;;;;;32.37;16.83;;;5.20;99.90;;;;;;4973737;28;20470;-79
2022/01/17 01:32:44;;;;;;;38.20;18.60;;;5.30;99.90;;;;;;4975940;28;20456;-78
2022/01/17 01:35:13;;;;;;;39.80;20.70;;;5.30;99.90;;;;;;5014468;28;20470;-79
2022/01/17 01:37:38;;;;;;;36.00;18.10;;;5.30;99.90;;;;;;5059308;28;20423;-79
2022/01/17 01:40:06;;;;;;;35.87;17.97;;;5.20;99.90;;;;;;5062453;28;20438;-80
2022/01/17 01:42:33;;;;;;;38.30;18.77;;;5.30;99.90;;;;;;5062854;28;20212;-79
2022/01/17 01:45:01;;;;;;;40.93;17.57;;;5.30;99.90;;;;;;5067815;28;20502;-80
2022/01/17 01:47:27;;;;;;;38.97;20.07;;;5.30;99.90;;;;;;5065936;28;20453;-80
2022/01/17 01:49:53;;;;;;;31.20;15.93;;;5.20;99.90;;;;;;5065539;28;20424;-80
2022/01/17 01:52:19;;;;;;;32.40;16.27;;;5.20;99.90;;;;;;5065869;28;20456;-79
2022/01/17 01:54:45;;;;;;;39.20;17.90;;;5.20;99.90;;;;;;5064365;28;20569;-79
2022/01/17 01:57:11;;;;;;;38.33;17.63;;;5.30;99.90;;;;;;5065094;28;20425;-80
2022/01/17 01:59:38;;;;;;;41.10;21.03;;;5.40;99.90;;;;;;5065586;28;20439;-80
2022/01/17 02:02:05;;;;;;;43.33;21.40;;;5.40;99.90;;;;;;5064567;28;20511;-79
2022/01/17 02:04:31;;;;;;;42.73;20.33;;;5.40;99.90;;;;;;5063409;28;20432;-80
2022/01/17 02:06:57;;;;;;;39.80;20.77;;;5.50;99.90;;;;;;5063073;28;20417;-79
2022/01/17 02:09:23;;;;;;;42.13;20.10;;;5.50;99.90;;;;;;5062857;28;20923;-80
2022/01/17 02:11:50;;;;;;;45.83;20.33;;;5.50;99.90;;;;;;5063095;28;20210;-79
2022/01/17 02:14:16;;;;;;;45.20;21.30;;;5.50;99.90;;;;;;5062406;28;20484;-79
2022/01/17 02:16:44;;;;;;;51.60;20.50;;;5.50;99.90;;;;;;5063816;28;20467;-79
2022/01/17 02:19:12;;;;;;;41.30;20.80;;;5.50;99.90;;;;;;5065749;28;20411;-80
2022/01/17 02:21:47;;;;;;;44.07;18.63;;;5.50;99.90;;;;;;5065473;28;20420;-79
2022/01/17 02:24:16;;;;;;;37.47;18.87;;;5.60;99.90;;;;;;5065281;28;20787;-79
2022/01/17 02:26:42;;;;;;;47.23;21.00;;;5.50;99.90;;;;;;5066596;28;20432;-80
2022/01/17 02:29:08;;;;;;;47.13;20.50;;;5.50;99.90;;;;;;5065197;28;20427;-79
2022/01/17 02:31:34;;;;;;;37.27;17.33;;;5.50;99.90;;;;;;5065336;28;20485;-80
2022/01/17 02:34:01;;;;;;;47.60;19.90;;;5.50;99.90;;;;;;5065937;28;20220;-79
2022/01/17 02:36:27;;;;;;;39.43;23.87;;;5.50;99.90;;;;;;5064978;28;20536;-80
2022/01/17 02:38:53;;;;;;;40.87;19.53;;;5.50;99.90;;;;;;5065449;28;20420;-79
2022/01/17 02:41:19;;;;;;;33.50;18.50;;;5.50;99.90;;;;;;5063867;28;20486;-79
2022/01/17 02:43:46;;;;;;;43.27;20.43;;;5.50;99.90;;;;;;5064263;28;20562;-80
2022/01/17 02:48:39;;;;;;;40.30;20.37;;;5.50;99.90;;;;;;5084035;28;20569;-79
2022/01/17 02:51:06;;;;;;;49.77;21.43;;;5.50;99.90;;;;;;5062674;28;20425;-80
2022/01/17 02:53:32;;;;;;;38.50;19.00;;;5.50;99.90;;;;;;5063537;28;20451;-80
2022/01/17 02:56:03;;;;;;;44.20;20.87;;;5.50;99.90;;;;;;5063230;28;20558;-79
2022/01/17 02:58:33;;;;;;;41.90;21.47;;;5.60;99.90;;;;;;5063014;28;20435;-80
2022/01/17 03:01:01;;;;;;;34.63;20.30;;;5.60;99.90;;;;;;5061762;28;20428;-79
2022/01/17 03:03:31;;;;;;;37.83;20.17;;;5.60;99.90;;;;;;5062782;28;20444;-79
2022/01/17 03:05:58;;;;;;;42.07;20.40;;;5.50;99.90;;;;;;5062436;28;20774;-79
2022/01/17 03:08:27;;;;;;;43.13;21.40;;;5.60;99.90;;;;;;5062348;28;20458;-79
2022/01/17 03:10:54;;;;;;;42.80;19.77;;;5.60;99.90;;;;;;5062811;28;20470;-79
2022/01/17 03:13:28;;;;;;;39.70;21.07;;;5.70;99.90;;;;;;5061479;28;20499;-79
2022/01/17 03:15:57;;;;;;;42.17;20.53;;;5.70;99.90;;;;;;5061769;28;20908;-80
2022/01/17 03:18:24;;;;;;;44.63;20.73;;;5.70;99.90;;;;;;5061227;28;20429;-79
2022/01/17 03:20:50;;;;;;;47.47;20.87;;;5.70;99.90;;;;;;5060962;28;20928;-79
2022/01/17 03:23:17;;;;;;;43.73;22.57;;;5.70;99.90;;;;;;5060515;28;20543;-79
2022/01/17 03:25:42;;;;;;;55.07;21.50;;;5.70;99.90;;;;;;5061310;28;20185;-79
2022/01/17 03:28:08;;;;;;;48.10;21.40;;;5.60;99.90;;;;;;5059419;28;20490;-79
2022/01/17 03:30:35;;;;;;;43.77;20.97;;;5.60;99.90;;;;;;5059923;28;20961;-79
2022/01/17 03:33:09;;;;;;;40.77;22.00;;;5.70;99.90;;;;;;5059993;28;20448;-79
2022/01/17 03:35:38;;;;;;;47.97;20.13;;;5.70;99.90;;;;;;5068467;28;20460;-80
2022/01/17 03:38:08;;;;;;;39.27;21.97;;;5.60;99.90;;;;;;5072985;28;20428;-80
2022/01/17 03:40:35;;;;;;;37.60;20.30;;;5.60;99.90;;;;;;5072817;28;20447;-80
2022/01/17 03:43:01;;;;;;;44.50;22.83;;;5.60;99.90;;;;;;5071160;28;20436;-80
2022/01/17 03:45:27;;;;;;;45.07;21.67;;;5.60;99.90;;;;;;5072654;28;20435;-80
2022/01/17 03:47:53;;;;;;;41.53;20.10;;;5.60;99.90;;;;;;5073648;28;20419;-80
2022/01/17 03:50:21;;;;;;;44.80;22.13;;;5.60;99.90;;;;;;5072486;28;20189;-80
2022/01/17 03:52:48;;;;;;;42.47;20.23;;;5.60;99.90;;;;;;5064921;28;20206;-80
2022/01/17 03:55:16;;;;;;;43.17;21.00;;;5.60;99.90;;;;;;5064461;28;20491;-80
2022/01/17 03:57:43;;;;;;;41.07;19.00;;;5.70;99.90;;;;;;5063831;28;20454;-80
2022/01/17 04:00:13;;;;;;;43.17;19.53;;;5.60;99.90;;;;;;5064334;28;20512;-80
2022/01/17 04:02:39;;;;;;;41.23;21.73;;;5.70;99.90;;;;;;5063814;28;20437;-80
2022/01/17 04:05:06;;;;;;;43.40;19.97;;;5.70;99.90;;;;;;5063021;28;20448;-79
2022/01/17 04:07:32;;;;;;;42.37;19.50;;;5.80;99.90;;;;;;5065575;28;20432;-79
2022/01/17 04:09:58;;;;;;;36.07;18.20;;;5.70;99.90;;;;;;5066653;28;20423;-80
2022/01/17 04:12:23;;;;;;;41.77;20.37;;;5.70;99.90;;;;;;5066372;28;20451;-79
2022/01/17 04:14:54;;;;;;;35.20;20.33;;;5.50;99.90;;;;;;5065805;28;20578;-80
2022/01/17 04:17:20;;;;;;;41.43;19.10;;;5.50;99.90;;;;;;5065487;28;20648;-79
2022/01/17 04:19:51;;;;;;;37.77;18.23;;;5.50;99.90;;;;;;5065377;28;20423;-80
2022/01/17 04:22:17;;;;;;;43.20;22.37;;;5.50;99.90;;;;;;5065383;28;20966;-80
2022/01/17 04:24:43;;;;;;;42.27;19.73;;;5.50;99.90;;;;;;5065458;28;20467;-80
2022/01/17 04:27:09;;;;;;;40.53;17.57;;;5.60;99.90;;;;;;5064461;28;20204;-79
2022/01/17 04:29:35;;;;;;;43.03;20.00;;;5.60;99.90;;;;;;5063795;28;20189;-80
2022/01/17 04:32:02;;;;;;;50.73;20.10;;;5.60;99.90;;;;;;5063997;28;20209;-79
2022/01/17 04:34:28;;;;;;;40.80;20.00;;;5.60;99.90;;;;;;5064528;28;20439;-79
2022/01/17 04:36:54;;;;;;;46.57;18.40;;;5.50;99.90;;;;;;5064557;28;20434;-79
2022/01/17 04:39:20;;;;;;;38.70;21.23;;;5.50;99.90;;;;;;5063945;28;20182;-79
2022/01/17 04:41:46;;;;;;;37.77;17.60;;;5.50;99.90;;;;;;5070676;28;20953;-80
2022/01/17 04:46:56;;;;;;;42.53;19.33;;;5.50;99.90;;;;;;5088283;28;20848;-80
2022/01/17 04:49:21;;;;;;;37.60;19.67;;;5.50;99.90;;;;;;5069276;28;20435;-80
2022/01/17 04:51:53;;;;;;;40.70;19.57;;;5.60;99.90;;;;;;5069422;28;20213;-80
2022/01/17 04:54:41;;;;;;;44.37;20.30;;;5.70;99.90;;;;;;5068349;28;20208;-80
2022/01/17 04:57:06;;;;;;;35.83;17.63;;;5.60;99.90;;;;;;5084377;28;20497;-79
2022/01/17 04:59:31;;;;;;;37.03;17.87;;;5.70;99.90;;;;;;5066839;28;20423;-79
2022/01/17 05:01:57;;;;;;;37.37;17.70;;;5.70;99.90;;;;;;5067362;28;20960;-80
2022/01/17 05:04:23;;;;;;;39.73;19.07;;;5.70;99.90;;;;;;5067205;28;20334;-80
2022/01/17 05:06:48;;;;;;;42.77;20.20;;;5.70;99.90;;;;;;5065582;28;20566;-80
2022/01/17 05:09:14;;;;;;;43.00;19.80;;;5.70;99.90;;;;;;5065900;28;20178;-79
2022/01/17 05:11:41;;;;;;;40.93;20.00;;;5.70;99.90;;;;;;5065272;28;20221;-79
2022/01/17 05:14:08;;;;;;;44.07;20.03;;;5.70;99.90;;;;;;5065130;28;20182;-80
2022/01/17 05:16:38;;;;;;;47.40;21.73;;;5.70;99.90;;;;;;5063695;28;20464;-80
2022/01/17 05:21:48;;;;;;;40.73;20.43;;;5.70;99.90;;;;;;5082617;28;20523;-80
2022/01/17 05:24:14;;;;;;;39.30;19.73;;;5.80;99.90;;;;;;5064411;28;20834;-80
2022/01/17 05:26:41;;;;;;;42.60;18.03;;;5.80;99.90;;;;;;5063887;28;20212;-79
2022/01/17 05:29:07;;;;;;;44.03;19.53;;;5.80;99.90;;;;;;5067650;28;20247;-79
2022/01/17 05:31:33;;;;;;;37.33;18.67;;;5.70;99.90;;;;;;5073063;28;20778;-80
2022/01/17 05:33:59;;;;;;;40.87;19.50;;;5.80;99.90;;;;;;5076112;28;20443;-79
2022/01/17 05:36:24;;;;;;;34.20;18.83;;;5.90;99.90;;;;;;5071173;28;20201;-80
2022/01/17 05:38:52;;;;;;;34.83;18.40;;;5.80;99.90;;;;;;5047701;28;20432;-79
2022/01/17 05:41:18;;;;;;;28.67;17.33;;;5.80;99.90;;;;;;5043106;28;20198;-80
2022/01/17 05:43:45;;;;;;;34.73;18.13;;;5.80;99.90;;;;;;5042621;28;20452;-80
2022/01/17 05:46:10;;;;;;;33.03;17.13;;;5.70;99.90;;;;;;5042449;28;20441;-80
2022/01/17 05:48:36;;;;;;;37.87;19.47;;;5.70;99.90;;;;;;5040996;28;20928;-79
2022/01/17 05:51:02;;;;;;;43.60;19.10;;;5.70;99.90;;;;;;5041778;28;20230;-80
2022/01/17 05:53:28;;;;;;;33.00;17.03;;;5.70;99.90;;;;;;5045738;28;20232;-79
2022/01/17 05:55:54;;;;;;;33.60;18.20;;;5.70;99.90;;;;;;5044524;28;20547;-79
2022/01/17 05:58:20;;;;;;;37.27;18.40;;;5.70;99.90;;;;;;5043328;28;20515;-79
2022/01/17 06:00:46;;;;;;;35.50;18.80;;;5.70;99.90;;;;;;5042769;28;20332;-79
2022/01/17 06:03:12;;;;;;;37.27;18.00;;;5.80;99.90;;;;;;5044113;28;20199;-79
2022/01/17 06:05:38;;;;;;;35.70;18.47;;;5.80;99.90;;;;;;5040973;28;20429;-79
2022/01/17 06:08:04;;;;;;;31.50;17.20;;;5.80;99.90;;;;;;5040910;28;20195;-79
2022/01/17 06:10:30;;;;;;;35.20;16.80;;;5.80;99.90;;;;;;5040866;28;20429;-79
2022/01/17 06:12:56;;;;;;;37.10;19.10;;;5.80;99.90;;;;;;5040380;28;20499;-79
2022/01/17 06:15:22;;;;;;;31.13;16.53;;;5.80;99.90;;;;;;5040455;28;20199;-79
2022/01/17 06:17:48;;;;;;;31.20;14.57;;;5.90;99.90;;;;;;5040436;28;20457;-79
2022/01/17 06:20:14;;;;;;;40.37;17.73;;;5.80;99.90;;;;;;5041095;28;20429;-80
2022/01/17 06:22:40;;;;;;;44.43;17.03;;;5.80;99.90;;;;;;5041975;28;20437;-79
2022/01/17 06:25:06;;;;;;;34.93;16.93;;;5.90;99.90;;;;;;5040563;28;20436;-79
2022/01/17 06:27:32;;;;;;;31.47;18.23;;;5.90;99.90;;;;;;5039605;28;20418;-79
2022/01/17 06:29:59;;;;;;;35.13;19.80;;;5.90;99.90;;;;;;5041001;28;20431;-79
2022/01/17 06:32:26;;;;;;;41.40;18.10;;;5.80;99.90;;;;;;5040670;28;20438;-79
2022/01/17 06:34:55;;;;;;;34.37;17.40;;;5.90;99.90;;;;;;5039584;28;20499;-79
2022/01/17 06:37:21;;;;;;;31.73;16.27;;;5.90;99.90;;;;;;5040061;28;20426;-79
2022/01/17 06:39:47;;;;;;;31.37;18.17;;;6.00;99.90;;;;;;5041794;28;20476;-79
2022/01/17 06:42:12;;;;;;;35.30;17.00;;;5.90;99.90;;;;;;5051469;22;20231;-87
2022/01/17 06:44:38;;;;;;;29.73;14.90;;;6.00;99.90;;;;;;5013953;28;20177;-87
2022/01/17 06:47:04;;;;;;;34.57;19.00;;;6.00;99.90;;;;;;5013965;28;20207;-87
2022/01/17 06:49:30;;;;;;;38.07;16.83;;;6.00;99.90;;;;;;5013874;28;20236;-87
2022/01/17 06:51:55;;;;;;;31.83;17.60;;;6.00;99.90;;;;;;5027361;28;20439;-87
2022/01/17 06:57:07;;;;;;;31.33;16.80;;;6.00;99.90;;;;;;5034418;28;20187;-88
2022/01/17 06:59:32;;;;;;;31.97;17.40;;;6.00;99.90;;;;;;5034710;28;20463;-87
2022/01/17 07:01:58;;;;;;;34.90;15.73;;;6.00;99.90;;;;;;5032748;28;20317;-88
2022/01/17 07:04:27;;;;;;;36.90;16.50;;;6.00;99.90;;;;;;5033639;28;20183;-88
2022/01/17 07:06:52;;;;;;;35.20;15.80;;;6.00;99.90;;;;;;5033780;28;20187;-90
2022/01/17 07:09:19;;;;;;;33.60;18.40;;;6.00;99.90;;;;;;5033963;28;20928;-88
2022/01/17 07:11:45;;;;;;;37.80;16.93;;;6.00;99.90;;;;;;5033482;28;20213;-88
2022/01/17 07:14:12;;;;;;;30.63;15.60;;;6.00;99.90;;;;;;5033378;28;20418;-88
2022/01/17 07:16:39;;;;;;;36.73;16.83;;;6.10;99.90;;;;;;5033381;28;20214;-88
2022/01/17 07:19:06;;;;;;;31.07;17.53;;;6.00;99.90;;;;;;5016842;28;20450;-89
2022/01/17 07:21:33;;;;;;;42.13;18.33;;;6.00;99.90;;;;;;5033100;28;20446;-88
2022/01/17 07:24:02;;;;;;;35.50;17.90;;;6.10;99.90;;;;;;5034296;28;20417;-86
2022/01/17 07:26:28;;;;;;;35.77;16.17;;;6.00;99.90;;;;;;5032885;28;20786;-88
2022/01/17 07:28:55;;;;;;;33.63;15.33;;;6.00;99.90;;;;;;5033132;28;20430;-88
2022/01/17 07:31:21;;;;;;;29.17;16.80;;;6.00;99.90;;;;;;5032943;28;20203;-87
2022/01/17 07:33:47;;;;;;;32.03;16.07;;;6.00;99.90;;;;;;5032586;28;20842;-85
2022/01/17 07:36:18;;;;;;;29.33;16.73;;;6.00;99.90;;;;;;5032554;28;20736;-85
2022/01/17 07:38:44;;;;;;;33.20;13.50;;;6.00;99.90;;;;;;5032247;28;20428;-85
2022/01/17 07:41:09;;;;;;;31.47;16.13;;;6.00;99.90;;;;;;5032025;28;20524;-85
2022/01/17 07:43:37;;;;;;;31.10;16.90;;;6.00;99.90;;;;;;5032312;28;20426;-86
2022/01/17 07:46:05;;;;;;;30.33;17.00;;;6.00;99.90;;;;;;5032131;28;20240;-85
2022/01/17 07:51:19;;;;;;;39.17;17.17;;;6.00;99.90;;;;;;5033545;28;20477;-85
2022/01/17 07:53:44;;;;;;;30.93;16.57;;;6.00;99.90;;;;;;5032123;28;20414;-85
2022/01/17 07:56:10;;;;;;;34.00;16.23;;;6.00;99.90;;;;;;5033092;28;20469;-84
2022/01/17 07:58:56;;;;;;;29.07;14.47;;;5.90;99.90;;;;;;5031862;28;20538;-85
2022/01/17 08:01:22;;;;;;;27.53;13.00;;;5.90;99.90;;;;;;5031924;28;20210;-85
2022/01/17 08:03:48;;;;;;;34.77;15.80;;;6.00;99.90;;;;;;5031880;28;20786;-87
2022/01/17 08:06:13;;;;;;;33.00;14.90;;;6.00;99.90;;;;;;5031838;28;20472;-87
2022/01/17 08:08:39;;;;;;;35.20;15.17;;;6.00;99.90;;;;;;5031752;28;20164;-86
2022/01/17 08:11:05;;;;;;;27.17;15.10;;;6.10;99.90;;;;;;5031659;28;20204;-87
2022/01/17 08:13:30;;;;;;;26.30;15.13;;;6.10;99.90;;;;;;5032072;28;20180;-87
2022/01/17 08:15:56;;;;;;;26.53;13.40;;;6.20;99.90;;;;;;5031157;28;20241;-87
2022/01/17 08:18:21;;;;;;;26.03;14.13;;;6.30;99.90;;;;;;5015233;28;20180;-87
2022/01/17 08:20:49;;;;;;;28.97;15.23;;;6.30;99.90;;;;;;5031540;28;20226;-87
2022/01/17 08:23:15;;;;;;;29.57;14.43;;;6.30;99.90;;;;;;5033321;28;20191;-87
2022/01/17 08:25:41;;;;;;;31.20;14.60;;;6.40;99.90;;;;;;5031955;28;20432;-87
2022/01/17 08:28:07;;;;;;;29.47;14.13;;;6.40;99.90;;;;;;5031385;28;20277;-87
2022/01/17 08:30:33;;;;;;;27.43;14.13;;;6.50;99.90;;;;;;5031387;28;20462;-87
2022/01/17 08:32:59;;;;;;;30.13;14.17;;;6.50;99.90;;;;;;5033022;28;20289;-86
2022/01/17 08:35:25;;;;;;;28.80;13.70;;;6.50;99.90;;;;;;5031229;28;20462;-87
2022/01/17 08:37:51;;;;;;;24.90;14.00;;;6.50;99.90;;;;;;5015289;28;20462;-87
2022/01/17 08:40:18;;;;;;;24.93;13.33;;;6.60;99.90;;;;;;5031570;28;20412;-88
2022/01/17 08:42:44;;;;;;;35.67;14.90;;;6.60;99.90;;;;;;5031562;28;20275;-87
2022/01/17 08:45:12;;;;;;;28.30;15.13;;;6.60;99.90;;;;;;5031456;28;21017;-87
2022/01/17 08:47:38;;;;;;;29.97;14.80;;;6.60;99.90;;;;;;5031049;28;20427;-88
2022/01/17 08:50:06;;;;;;;30.13;16.23;;;6.60;99.90;;;;;;5031218;28;20481;-85
2022/01/17 08:52:31;;;;;;;26.43;13.90;;;6.60;99.90;;;;;;5030747;28;20591;-85
2022/01/17 08:54:57;;;;;;;32.37;17.80;;;6.60;99.90;;;;;;5030969;28;20557;-85
2022/01/17 08:57:24;;;;;;;33.10;16.17;;;6.50;99.90;;;;;;5030621;28;20204;-85
2022/01/17 08:59:50;;;;;;;32.10;16.07;;;6.50;99.90;;;;;;5030940;28;20561;-85
2022/01/17 09:02:16;;;;;;;33.37;17.30;;;6.50;99.90;;;;;;5030635;28;20442;-85
2022/01/17 09:04:42;;;;;;;32.83;15.77;;;6.50;99.90;;;;;;5032268;28;20454;-85
2022/01/17 09:07:14;;;;;;;38.07;17.33;;;6.50;99.90;;;;;;5030582;28;20455;-85
2022/01/17 09:09:47;;;;;;;34.33;18.23;;;6.50;99.90;;;;;;5033545;28;20421;-89
2022/01/17 09:12:14;;;;;;;36.13;19.00;;;6.50;99.90;;;;;;5033985;28;20965;-86
2022/01/17 09:14:40;;;;;;;37.47;20.43;;;6.50;99.90;;;;;;5033595;28;20414;-86
2022/01/17 09:17:07;;;;;;;33.57;17.63;;;6.50;99.90;;;;;;5017191;28;20925;-85
2022/01/17 09:19:34;;;;;;;34.97;18.23;;;6.40;99.90;;;;;;5013536;28;20556;-85
2022/01/17 09:22:01;;;;;;;34.57;19.03;;;6.50;99.90;;;;;;5013927;28;20565;-85
2022/01/17 09:24:26;;;;;;;43.17;20.03;;;6.50;99.90;;;;;;5014186;28;20501;-85
2022/01/17 09:26:52;;;;;;;28.23;16.07;;;6.60;99.90;;;;;;5014703;28;20505;-85
2022/01/17 09:29:18;;;;;;;28.73;16.93;;;6.60;99.90;;;;;;5018782;28;20195;-85
2022/01/17 09:31:43;;;;;;;33.07;16.60;;;6.70;99.90;;;;;;5035971;28;20196;-85
2022/01/17 09:34:09;;;;;;;37.47;18.23;;;6.80;99.90;;;;;;5018229;28;20188;-86
2022/01/17 09:36:35;;;;;;;36.00;19.80;;;6.80;99.90;;;;;;5017862;28;20322;-86
2022/01/17 09:39:03;;;;;;;34.03;18.80;;;7.00;99.90;;;;;;5036546;28;20523;-86
2022/01/17 09:41:29;;;;;;;37.03;19.63;;;7.30;99.90;;;;;;5027048;28;20227;-85
2022/01/17 09:43:54;;;;;;;37.07;19.53;;;7.40;99.90;;;;;;5035132;28;20445;-85
2022/01/17 09:46:24;;;;;;;32.97;17.37;;;7.50;99.90;;;;;;5034221;28;20196;-86
2022/01/17 09:48:59;;;;;;;36.90;18.13;;;7.40;99.90;;;;;;5034385;28;20560;-87
2022/01/17 09:51:40;;;;;;;29.93;16.67;;;7.40;99.90;;;;;;5034228;28;20495;-87
2022/01/17 09:54:08;;;;;;;33.90;19.30;;;7.40;99.90;;;;;;5037925;28;20421;-86
2022/01/17 09:56:34;;;;;;;42.30;17.90;;;7.40;99.90;;;;;;5032894;28;20465;-87
2022/01/17 09:59:02;;;;;;;33.17;17.47;;;7.40;99.90;;;;;;5051351;28;20512;-87
2022/01/17 10:01:27;;;;;;;33.20;16.23;;;7.40;99.90;;;;;;5037232;28;20477;-87
2022/01/17 10:03:56;;;;;;;28.13;17.67;;;7.40;99.90;;;;;;5037205;28;20454;-87
2022/01/17 10:06:23;;;;;;;37.00;19.13;;;7.40;99.90;;;;;;5037379;28;20215;-87
2022/01/17 10:09:07;;;;;;;33.27;17.50;;;7.40;99.90;;;;;;5037219;28;20441;-86
2022/01/17 10:11:33;;;;;;;29.50;15.87;;;7.30;99.90;;;;;;5037257;28;20442;-86
2022/01/17 10:13:58;;;;;;;33.03;19.07;;;7.40;99.90;;;;;;5055254;28;20429;-87
2022/01/17 10:16:25;;;;;;;37.43;18.30;;;7.50;99.90;;;;;;5037286;28;20616;-87
2022/01/17 10:18:59;;;;;;;32.13;18.17;;;7.30;99.90;;;;;;5037141;28;20562;-87
2022/01/17 10:21:40;;;;;;;31.83;16.70;;;7.30;99.90;;;;;;5037100;28;20446;-87
2022/01/17 10:35:15;;;;;;;32.37;18.50;;;7.50;99.90;;;;;;5055244;28;20460;-87
2022/01/17 10:37:41;;;;;;;31.70;17.33;;;7.50;99.90;;;;;;5036324;28;20418;-86
2022/01/17 10:40:15;;;;;;;34.97;18.10;;;7.60;99.90;;;;;;5036728;28;20422;-86
2022/01/17 10:42:47;;;;;;;36.17;20.03;;;7.90;99.90;;;;;;5036600;28;20477;-86
2022/01/17 10:45:19;;;;;;;26.50;16.13;;;8.00;99.90;;;;;;5054433;28;20423;-87
2022/01/17 10:47:47;;;;;;;32.30;16.07;;;8.00;99.90;;;;;;5036553;28;20422;-87
2022/01/17 10:50:23;;;;;;;26.03;16.27;;;7.90;99.90;;;;;;5036678;28;20423;-87
2022/01/17 10:52:56;;;;;;;32.60;17.73;;;7.80;99.90;;;;;;5036584;28;20433;-86
2022/01/17 10:55:34;;;;;;;33.33;19.57;;;7.90;99.90;;;;;;5036382;28;20552;-86
2022/01/17 10:58:03;;;;;;;31.53;16.30;;;7.90;99.90;;;;;;5036216;28;20426;-86
2022/01/17 11:04:04;;;;;;;23.87;16.30;;;8.00;99.90;;;;;;5054229;28;20497;-87
2022/01/17 11:06:30;;;;;;;28.70;16.40;;;8.00;99.90;;;;;;5036082;28;20422;-87
2022/01/17 11:09:05;;;;;;;24.00;15.20;;;8.00;99.90;;;;;;5054318;28;20430;-86
2022/01/17 11:11:40;;;;;;;26.07;16.27;;;7.80;99.90;;;;;;5036155;28;20215;-87
2022/01/17 11:14:10;;;;;;;25.77;15.07;;;7.70;99.90;;;;;;5020052;28;20429;-86
2022/01/17 11:16:37;;;;;;;31.07;15.70;;;7.80;99.90;;;;;;5035747;28;20492;-86
2022/01/17 11:20:02;;;;;;;28.17;17.47;;;7.80;99.90;;;;;;5036050;28;20426;-86
2022/01/17 11:21:50;;;;;;;30.20;18.20;;;7.70;99.90;;;;;;5053623;28;20437;-87
2022/01/17 11:24:15;;;;;;;29.73;19.20;;;7.50;99.90;;;;;;5035799;28;20925;-86
2022/01/17 11:26:42;;;;;;;25.30;16.77;;;7.40;99.90;;;;;;5035847;28;20425;-86
2022/01/17 11:29:07;;;;;;;28.90;18.87;;;7.40;99.90;;;;;;5035769;28;20996;-86
2022/01/17 11:31:34;;;;;;;31.40;17.77;;;7.40;99.90;;;;;;5035751;28;20576;-86
2022/01/17 11:33:59;;;;;;;34.33;16.80;;;7.40;99.90;;;;;;5035744;28;20414;-86
2022/01/17 11:36:26;;;;;;;29.93;17.63;;;7.50;99.90;;;;;;5035554;28;21077;-86
2022/01/17 11:38:55;;;;;;;27.67;17.47;;;7.50;99.90;;;;;;5035947;28;20426;-87
2022/01/17 11:41:34;;;;;;;37.23;18.87;;;7.50;99.90;;;;;;5035598;28;20468;-87
2022/01/17 11:44:00;;;;;;;28.23;17.60;;;7.40;99.90;;;;;;5035730;28;20571;-86
2022/01/17 11:46:32;;;;;;;27.70;17.20;;;7.40;99.90;;;;;;5035416;28;20426;-86
2022/01/17 11:49:05;;;;;;;27.03;17.83;;;7.50;99.90;;;;;;5035018;28;20797;-87
2022/01/17 11:51:51;;;;;;;26.43;16.00;;;7.60;99.90;;;;;;5035277;28;20452;-86
2022/01/17 11:54:25;;;;;;;27.73;15.90;;;7.60;99.90;;;;;;5034925;28;20430;-87
2022/01/17 11:56:57;;;;;;;29.57;17.90;;;7.50;99.90;;;;;;5035092;28;20477;-86
2022/01/17 11:59:27;;;;;;;30.40;17.07;;;7.50;99.90;;;;;;5053195;28;20886;-86
2022/01/17 12:02:19;;;;;;;25.37;15.53;;;7.60;99.90;;;;;;5035075;28;20879;-87
2022/01/17 12:05:11;;;;;;;26.97;16.30;;;7.50;99.90;;;;;;5035268;28;20441;-87
2022/01/17 12:07:44;;;;;;;33.63;14.80;;;7.50;99.90;;;;;;5021348;28;20790;-87
2022/01/17 12:10:15;;;;;;;22.47;14.33;;;7.60;99.90;;;;;;5035316;28;20782;-87
2022/01/17 12:12:41;;;;;;;21.40;15.07;;;7.50;99.90;;;;;;5035268;28;20445;-87
2022/01/17 12:15:16;;;;;;;26.10;15.70;;;7.40;99.90;;;;;;5035110;28;20501;-86
2022/01/17 12:17:43;;;;;;;24.40;14.23;;;7.50;99.90;;;;;;5034762;28;20504;-87
2022/01/17 12:20:14;;;;;;;29.70;15.90;;;7.40;99.90;;;;;;5035038;28;20426;-88
2022/01/17 12:22:39;;;;;;;33.17;17.23;;;7.40;99.90;;;;;;5035180;28;20446;-87
2022/01/17 12:25:30;;;;;;;27.60;18.27;;;7.40;99.90;;;;;;5034792;28;20874;-87
2022/01/17 12:28:05;;;;;;;25.70;15.27;;;7.50;99.90;;;;;;5034612;28;20630;-87
2022/01/17 12:30:57;;;;;;;26.93;14.43;;;7.50;99.90;;;;;;5034824;28;20434;-87
2022/01/17 12:33:30;;;;;;;24.93;15.10;;;7.50;99.90;;;;;;5034894;28;20441;-87
2022/01/17 12:36:01;;;;;;;22.90;15.00;;;7.50;99.90;;;;;;5034862;28;21059;-87
2022/01/17 12:38:40;;;;;;;28.03;16.03;;;7.60;99.90;;;;;;5034253;28;20421;-86
2022/01/17 12:41:06;;;;;;;23.97;15.73;;;7.60;99.90;;;;;;5034326;28;20469;-87
2022/01/17 12:43:35;;;;;;;29.43;16.43;;;7.60;99.90;;;;;;5059423;22;20510;-83
2022/01/17 12:46:06;;;;;;;30.40;14.17;;;7.60;99.90;;;;;;5034712;28;20423;-83
2022/01/17 12:48:34;;;;;;;21.80;13.83;;;7.70;99.90;;;;;;5052490;28;20410;-82
2022/01/17 12:51:03;;;;;;;25.63;15.70;;;7.70;99.90;;;;;;5034715;28;20501;-83
2022/01/17 12:53:29;;;;;;;29.00;15.37;;;7.80;99.90;;;;;;5044797;28;20471;-83
2022/01/17 12:56:04;;;;;;;27.40;15.10;;;7.70;99.90;;;;;;5072880;28;20959;-83
2022/01/17 12:58:38;;;;;;;24.40;15.10;;;7.70;99.90;;;;;;5072540;28;20447;-82
2022/01/17 13:01:10;;;;;;;24.90;16.10;;;7.70;99.90;;;;;;5054430;28;20855;-82
2022/01/17 13:03:38;;;;;;;22.83;13.73;;;7.50;99.90;;;;;;5055068;28;20535;-84
2022/01/17 13:06:07;;;;;;;28.03;16.50;;;7.40;99.90;;;;;;5054703;28;20413;-83
2022/01/17 13:08:33;;;;;;;27.77;16.00;;;7.40;99.90;;;;;;5054272;28;20860;-81
2022/01/17 13:11:01;;;;;;;30.17;15.97;;;7.40;99.90;;;;;;5072370;28;20409;-81
2022/01/17 13:13:27;;;;;;;22.53;15.53;;;7.40;99.90;;;;;;5064218;28;20457;-82
2022/01/17 13:16:10;;;;;;;24.73;16.30;;;7.50;99.90;;;;;;5042590;28;20798;-81
2022/01/17 13:18:36;;;;;;;24.00;16.30;;;7.50;99.90;;;;;;5060859;28;20179;-83
2022/01/17 13:21:03;;;;;;;30.40;14.90;;;7.40;99.90;;;;;;5048357;28;20517;-84
2022/01/17 13:23:42;;;;;;;25.53;14.07;;;7.40;99.90;;;;;;5052950;28;20206;-84